sensor_id;sensor_type;location;lat;lon;timestamp;P1;durP1;ratioP1;P2;durP2;ratioP2
45208;SDS011;30951;43.994;26.260;2023-02-23T00:01:34;14.40;;;5.90;;
45208;SDS011;30951;43.994;26.260;2023-02-23T00:03:59;23.17;;;6.97;;
45208;SDS011;30951;43.994;26.260;2023-02-23T00:06:26;16.88;;;6.07;;
45208;SDS011;30951;43.994;26.260;2023-02-23T00:08:52;12.60;;;5.22;;
45208;SDS011;30951;43.994;26.260;2023-02-23T00:11:18;9.88;;;4.80;;
45208;SDS011;30951;43.994;26.260;2023-02-23T00:13:44;16.35;;;5.25;;
45208;SDS011;30951;43.994;26.260;2023-02-23T00:16:12;14.80;;;6.10;;
45208;SDS011;30951;43.994;26.260;2023-02-23T00:18:46;12.38;;;4.72;;
45208;SDS011;30951;43.994;26.260;2023-02-23T00:21:15;12.45;;;5.10;;
45208;SDS011;30951;43.994;26.260;2023-02-23T00:26:22;23.83;;;7.53;;
45208;SDS011;30951;43.994;26.260;2023-02-23T00:28:49;26.92;;;7.63;;
45208;SDS011;30951;43.994;26.260;2023-02-23T00:31:15;22.33;;;7.00;;
45208;SDS011;30951;43.994;26.260;2023-02-23T00:33:41;10.82;;;5.90;;
45208;SDS011;30951;43.994;26.260;2023-02-23T00:36:08;11.13;;;4.95;;
45208;SDS011;30951;43.994;26.260;2023-02-23T00:38:35;16.83;;;6.65;;
45208;SDS011;30951;43.994;26.260;2023-02-23T00:41:05;8.98;;;4.80;;
45208;SDS011;30951;43.994;26.260;2023-02-23T00:43:34;8.85;;;4.03;;
45208;SDS011;30951;43.994;26.260;2023-02-23T00:46:11;12.32;;;5.10;;
45208;SDS011;30951;43.994;26.260;2023-02-23T00:48:47;18.63;;;5.25;;
45208;SDS011;30951;43.994;26.260;2023-02-23T00:51:13;8.32;;;4.28;;
45208;SDS011;30951;43.994;26.260;2023-02-23T00:53:40;10.50;;;4.63;;
45208;SDS011;30951;43.994;26.260;2023-02-23T00:56:07;8.45;;;4.25;;
45208;SDS011;30951;43.994;26.260;2023-02-23T00:58:33;8.88;;;3.72;;
45208;SDS011;30951;43.994;26.260;2023-02-23T01:00:59;8.32;;;3.92;;
45208;SDS011;30951;43.994;26.260;2023-02-23T01:03:24;7.43;;;3.67;;
45208;SDS011;30951;43.994;26.260;2023-02-23T01:05:50;9.07;;;3.95;;
45208;SDS011;30951;43.994;26.260;2023-02-23T01:08:17;10.13;;;4.53;;
45208;SDS011;30951;43.994;26.260;2023-02-23T01:10:43;12.77;;;4.50;;
45208;SDS011;30951;43.994;26.260;2023-02-23T01:13:11;15.93;;;4.15;;
45208;SDS011;30951;43.994;26.260;2023-02-23T01:15:41;9.75;;;4.13;;
45208;SDS011;30951;43.994;26.260;2023-02-23T01:18:08;9.07;;;4.00;;
45208;SDS011;30951;43.994;26.260;2023-02-23T01:20:34;7.93;;;3.67;;
45208;SDS011;30951;43.994;26.260;2023-02-23T01:23:00;9.07;;;3.92;;
45208;SDS011;30951;43.994;26.260;2023-02-23T01:25:26;9.15;;;3.78;;
45208;SDS011;30951;43.994;26.260;2023-02-23T01:27:53;9.35;;;3.10;;
45208;SDS011;30951;43.994;26.260;2023-02-23T01:30:19;11.95;;;3.47;;
45208;SDS011;30951;43.994;26.260;2023-02-23T01:32:44;8.27;;;3.88;;
45208;SDS011;30951;43.994;26.260;2023-02-23T01:35:10;13.77;;;3.65;;
45208;SDS011;30951;43.994;26.260;2023-02-23T01:37:37;11.73;;;3.58;;
45208;SDS011;30951;43.994;26.260;2023-02-23T01:40:05;5.10;;;3.63;;
45208;SDS011;30951;43.994;26.260;2023-02-23T01:42:38;7.32;;;3.40;;
45208;SDS011;30951;43.994;26.260;2023-02-23T01:45:24;11.82;;;4.00;;
45208;SDS011;30951;43.994;26.260;2023-02-23T01:47:56;12.18;;;4.03;;
45208;SDS011;30951;43.994;26.260;2023-02-23T01:50:26;5.78;;;3.90;;
45208;SDS011;30951;43.994;26.260;2023-02-23T01:52:52;9.88;;;4.10;;
45208;SDS011;30951;43.994;26.260;2023-02-23T01:55:18;26.80;;;5.57;;
45208;SDS011;30951;43.994;26.260;2023-02-23T01:57:49;11.57;;;3.85;;
45208;SDS011;30951;43.994;26.260;2023-02-23T02:00:19;8.23;;;4.15;;
45208;SDS011;30951;43.994;26.260;2023-02-23T02:02:45;8.55;;;4.05;;
45208;SDS011;30951;43.994;26.260;2023-02-23T02:05:13;13.23;;;4.93;;
45208;SDS011;30951;43.994;26.260;2023-02-23T02:07:41;11.55;;;4.60;;
45208;SDS011;30951;43.994;26.260;2023-02-23T02:10:10;5.88;;;3.60;;
45208;SDS011;30951;43.994;26.260;2023-02-23T02:12:39;12.38;;;4.35;;
45208;SDS011;30951;43.994;26.260;2023-02-23T02:15:08;7.30;;;4.00;;
45208;SDS011;30951;43.994;26.260;2023-02-23T02:23:51;14.88;;;4.60;;
45208;SDS011;30951;43.994;26.260;2023-02-23T02:28:59;9.65;;;4.63;;
45208;SDS011;30951;43.994;26.260;2023-02-23T02:45:49;14.02;;;5.13;;
45208;SDS011;30951;43.994;26.260;2023-02-23T02:54:27;9.50;;;4.82;;
45208;SDS011;30951;43.994;26.260;2023-02-23T02:56:56;12.13;;;5.47;;
45208;SDS011;30951;43.994;26.260;2023-02-23T02:59:24;13.10;;;5.50;;
45208;SDS011;30951;43.994;26.260;2023-02-23T03:02:16;10.93;;;4.80;;
45208;SDS011;30951;43.994;26.260;2023-02-23T03:05:10;8.88;;;4.38;;
45208;SDS011;30951;43.994;26.260;2023-02-23T03:11:05;9.88;;;5.25;;
45208;SDS011;30951;43.994;26.260;2023-02-23T03:20:04;10.88;;;4.75;;
45208;SDS011;30951;43.994;26.260;2023-02-23T03:28:48;9.40;;;4.07;;
45208;SDS011;30951;43.994;26.260;2023-02-23T03:32:02;8.35;;;3.90;;
45208;SDS011;30951;43.994;26.260;2023-02-23T03:34:53;10.48;;;4.15;;
45208;SDS011;30951;43.994;26.260;2023-02-23T03:38:01;15.95;;;4.10;;
45208;SDS011;30951;43.994;26.260;2023-02-23T03:40:50;6.65;;;3.60;;
45208;SDS011;30951;43.994;26.260;2023-02-23T03:43:37;7.05;;;3.30;;
45208;SDS011;30951;43.994;26.260;2023-02-23T03:46:34;5.65;;;3.15;;
45208;SDS011;30951;43.994;26.260;2023-02-23T03:49:19;8.10;;;3.97;;
45208;SDS011;30951;43.994;26.260;2023-02-23T03:52:08;8.60;;;3.92;;
45208;SDS011;30951;43.994;26.260;2023-02-23T03:54:56;7.50;;;3.50;;
45208;SDS011;30951;43.994;26.260;2023-02-23T03:57:42;11.35;;;3.58;;
45208;SDS011;30951;43.994;26.260;2023-02-23T04:00:32;12.80;;;4.30;;
45208;SDS011;30951;43.994;26.260;2023-02-23T04:03:18;9.10;;;3.83;;
45208;SDS011;30951;43.994;26.260;2023-02-23T04:06:05;13.07;;;3.63;;
45208;SDS011;30951;43.994;26.260;2023-02-23T04:08:50;6.35;;;3.53;;
45208;SDS011;30951;43.994;26.260;2023-02-23T04:14:53;26.33;;;4.82;;
45208;SDS011;30951;43.994;26.260;2023-02-23T04:17:19;11.10;;;4.15;;
45208;SDS011;30951;43.994;26.260;2023-02-23T04:19:51;9.50;;;3.88;;
45208;SDS011;30951;43.994;26.260;2023-02-23T04:22:18;11.75;;;3.85;;
45208;SDS011;30951;43.994;26.260;2023-02-23T04:24:44;12.43;;;4.38;;
45208;SDS011;30951;43.994;26.260;2023-02-23T04:27:13;32.17;;;12.93;;
45208;SDS011;30951;43.994;26.260;2023-02-23T04:29:39;43.42;;;18.77;;
45208;SDS011;30951;43.994;26.260;2023-02-23T04:32:05;62.50;;;25.88;;
45208;SDS011;30951;43.994;26.260;2023-02-23T04:34:31;24.00;;;9.45;;
45208;SDS011;30951;43.994;26.260;2023-02-23T04:36:56;11.80;;;4.22;;
45208;SDS011;30951;43.994;26.260;2023-02-23T04:39:22;8.40;;;4.18;;
45208;SDS011;30951;43.994;26.260;2023-02-23T04:41:47;8.95;;;3.90;;
45208;SDS011;30951;43.994;26.260;2023-02-23T04:44:14;9.38;;;3.80;;
45208;SDS011;30951;43.994;26.260;2023-02-23T04:46:42;7.05;;;3.28;;
45208;SDS011;30951;43.994;26.260;2023-02-23T04:49:08;8.73;;;3.95;;
45208;SDS011;30951;43.994;26.260;2023-02-23T04:51:34;8.52;;;3.40;;
45208;SDS011;30951;43.994;26.260;2023-02-23T04:54:01;12.27;;;3.92;;
45208;SDS011;30951;43.994;26.260;2023-02-23T04:56:27;8.50;;;3.47;;
45208;SDS011;30951;43.994;26.260;2023-02-23T04:58:53;5.38;;;3.65;;
45208;SDS011;30951;43.994;26.260;2023-02-23T05:01:18;6.55;;;3.60;;
45208;SDS011;30951;43.994;26.260;2023-02-23T05:03:46;8.70;;;4.63;;
45208;SDS011;30951;43.994;26.260;2023-02-23T05:06:15;10.98;;;4.30;;
45208;SDS011;30951;43.994;26.260;2023-02-23T05:08:41;8.30;;;3.97;;
45208;SDS011;30951;43.994;26.260;2023-02-23T05:11:06;11.68;;;4.38;;
45208;SDS011;30951;43.994;26.260;2023-02-23T05:13:32;12.30;;;5.13;;
45208;SDS011;30951;43.994;26.260;2023-02-23T05:15:58;14.48;;;5.15;;
45208;SDS011;30951;43.994;26.260;2023-02-23T05:18:24;11.00;;;3.72;;
45208;SDS011;30951;43.994;26.260;2023-02-23T05:20:50;9.35;;;4.72;;
45208;SDS011;30951;43.994;26.260;2023-02-23T05:23:17;15.85;;;5.15;;
45208;SDS011;30951;43.994;26.260;2023-02-23T05:25:43;9.60;;;4.60;;
45208;SDS011;30951;43.994;26.260;2023-02-23T05:28:08;14.60;;;5.38;;
45208;SDS011;30951;43.994;26.260;2023-02-23T05:30:34;11.93;;;5.13;;
45208;SDS011;30951;43.994;26.260;2023-02-23T05:33:00;12.20;;;5.20;;
45208;SDS011;30951;43.994;26.260;2023-02-23T05:35:26;9.95;;;5.22;;
45208;SDS011;30951;43.994;26.260;2023-02-23T05:37:51;13.98;;;5.07;;
45208;SDS011;30951;43.994;26.260;2023-02-23T05:40:17;6.57;;;4.32;;
45208;SDS011;30951;43.994;26.260;2023-02-23T05:42:42;13.30;;;4.85;;
45208;SDS011;30951;43.994;26.260;2023-02-23T05:45:08;15.63;;;5.20;;
45208;SDS011;30951;43.994;26.260;2023-02-23T05:47:34;14.00;;;4.55;;
45208;SDS011;30951;43.994;26.260;2023-02-23T05:50:06;17.75;;;6.28;;
45208;SDS011;30951;43.994;26.260;2023-02-23T05:52:38;10.07;;;4.43;;
45208;SDS011;30951;43.994;26.260;2023-02-23T05:55:07;12.07;;;4.38;;
45208;SDS011;30951;43.994;26.260;2023-02-23T05:57:34;12.18;;;4.80;;
45208;SDS011;30951;43.994;26.260;2023-02-23T06:00:00;10.70;;;4.95;;
45208;SDS011;30951;43.994;26.260;2023-02-23T06:02:25;11.65;;;4.20;;
45208;SDS011;30951;43.994;26.260;2023-02-23T06:04:51;10.93;;;4.90;;
45208;SDS011;30951;43.994;26.260;2023-02-23T06:07:17;11.35;;;4.68;;
45208;SDS011;30951;43.994;26.260;2023-02-23T06:09:42;13.80;;;4.65;;
45208;SDS011;30951;43.994;26.260;2023-02-23T06:12:07;11.20;;;4.47;;
45208;SDS011;30951;43.994;26.260;2023-02-23T06:14:33;7.28;;;4.38;;
45208;SDS011;30951;43.994;26.260;2023-02-23T06:16:59;8.32;;;4.00;;
45208;SDS011;30951;43.994;26.260;2023-02-23T06:19:25;13.07;;;4.50;;
45208;SDS011;30951;43.994;26.260;2023-02-23T06:21:51;9.63;;;4.72;;
45208;SDS011;30951;43.994;26.260;2023-02-23T06:24:17;13.00;;;5.07;;
45208;SDS011;30951;43.994;26.260;2023-02-23T06:26:43;9.75;;;4.40;;
45208;SDS011;30951;43.994;26.260;2023-02-23T06:29:09;9.18;;;4.55;;
45208;SDS011;30951;43.994;26.260;2023-02-23T06:31:36;7.95;;;4.00;;
45208;SDS011;30951;43.994;26.260;2023-02-23T06:34:02;9.00;;;3.85;;
45208;SDS011;30951;43.994;26.260;2023-02-23T06:36:27;8.25;;;4.00;;
45208;SDS011;30951;43.994;26.260;2023-02-23T06:38:56;9.10;;;4.60;;
45208;SDS011;30951;43.994;26.260;2023-02-23T06:41:22;8.57;;;4.07;;
45208;SDS011;30951;43.994;26.260;2023-02-23T06:43:48;8.10;;;4.47;;
45208;SDS011;30951;43.994;26.260;2023-02-23T06:46:14;12.50;;;4.22;;
45208;SDS011;30951;43.994;26.260;2023-02-23T06:48:39;14.65;;;4.53;;
45208;SDS011;30951;43.994;26.260;2023-02-23T06:51:05;8.02;;;3.90;;
45208;SDS011;30951;43.994;26.260;2023-02-23T06:53:31;10.02;;;5.20;;
45208;SDS011;30951;43.994;26.260;2023-02-23T06:55:57;9.23;;;4.70;;
45208;SDS011;30951;43.994;26.260;2023-02-23T06:58:23;9.60;;;4.28;;
45208;SDS011;30951;43.994;26.260;2023-02-23T07:00:49;7.80;;;3.58;;
45208;SDS011;30951;43.994;26.260;2023-02-23T07:03:15;9.13;;;3.95;;
45208;SDS011;30951;43.994;26.260;2023-02-23T07:05:40;12.75;;;4.25;;
45208;SDS011;30951;43.994;26.260;2023-02-23T07:08:06;8.52;;;3.90;;
45208;SDS011;30951;43.994;26.260;2023-02-23T07:10:32;10.80;;;4.90;;
45208;SDS011;30951;43.994;26.260;2023-02-23T07:12:57;7.93;;;3.13;;
45208;SDS011;30951;43.994;26.260;2023-02-23T07:15:23;9.25;;;3.33;;
45208;SDS011;30951;43.994;26.260;2023-02-23T07:17:49;9.65;;;3.08;;
45208;SDS011;30951;43.994;26.260;2023-02-23T07:20:17;14.70;;;3.15;;
45208;SDS011;30951;43.994;26.260;2023-02-23T07:22:43;5.15;;;3.30;;
45208;SDS011;30951;43.994;26.260;2023-02-23T07:25:09;7.03;;;2.60;;
45208;SDS011;30951;43.994;26.260;2023-02-23T07:27:35;4.97;;;2.88;;
45208;SDS011;30951;43.994;26.260;2023-02-23T07:30:00;8.38;;;3.20;;
45208;SDS011;30951;43.994;26.260;2023-02-23T07:32:28;7.07;;;3.75;;
45208;SDS011;30951;43.994;26.260;2023-02-23T07:34:54;4.40;;;3.30;;
45208;SDS011;30951;43.994;26.260;2023-02-23T07:37:19;4.75;;;2.50;;
45208;SDS011;30951;43.994;26.260;2023-02-23T07:39:45;6.60;;;3.15;;
45208;SDS011;30951;43.994;26.260;2023-02-23T07:42:11;8.18;;;3.47;;
45208;SDS011;30951;43.994;26.260;2023-02-23T07:44:37;7.05;;;3.70;;
45208;SDS011;30951;43.994;26.260;2023-02-23T07:47:03;9.25;;;2.90;;
45208;SDS011;30951;43.994;26.260;2023-02-23T07:49:29;6.88;;;2.63;;
45208;SDS011;30951;43.994;26.260;2023-02-23T07:51:56;8.15;;;2.92;;
45208;SDS011;30951;43.994;26.260;2023-02-23T07:54:22;5.13;;;2.60;;
45208;SDS011;30951;43.994;26.260;2023-02-23T07:56:49;5.22;;;2.70;;
45208;SDS011;30951;43.994;26.260;2023-02-23T07:59:15;5.50;;;2.70;;
45208;SDS011;30951;43.994;26.260;2023-02-23T08:01:40;7.68;;;2.88;;
45208;SDS011;30951;43.994;26.260;2023-02-23T08:04:06;5.82;;;2.63;;
45208;SDS011;30951;43.994;26.260;2023-02-23T08:06:31;12.95;;;2.65;;
45208;SDS011;30951;43.994;26.260;2023-02-23T08:08:57;6.03;;;2.47;;
45208;SDS011;30951;43.994;26.260;2023-02-23T08:11:24;6.65;;;2.50;;
45208;SDS011;30951;43.994;26.260;2023-02-23T08:13:53;11.02;;;3.38;;
45208;SDS011;30951;43.994;26.260;2023-02-23T08:16:20;5.07;;;2.63;;
45208;SDS011;30951;43.994;26.260;2023-02-23T08:18:46;7.20;;;2.30;;
45208;SDS011;30951;43.994;26.260;2023-02-23T08:21:11;6.32;;;2.20;;
45208;SDS011;30951;43.994;26.260;2023-02-23T08:23:37;8.10;;;2.47;;
45208;SDS011;30951;43.994;26.260;2023-02-23T08:26:02;3.58;;;2.40;;
45208;SDS011;30951;43.994;26.260;2023-02-23T08:28:28;8.20;;;2.40;;
45208;SDS011;30951;43.994;26.260;2023-02-23T08:30:54;4.13;;;2.40;;
45208;SDS011;30951;43.994;26.260;2023-02-23T08:33:20;5.35;;;2.40;;
45208;SDS011;30951;43.994;26.260;2023-02-23T08:35:46;7.40;;;2.25;;
45208;SDS011;30951;43.994;26.260;2023-02-23T08:38:11;9.55;;;2.47;;
45208;SDS011;30951;43.994;26.260;2023-02-23T08:40:37;6.80;;;2.40;;
45208;SDS011;30951;43.994;26.260;2023-02-23T08:43:02;9.00;;;3.03;;
45208;SDS011;30951;43.994;26.260;2023-02-23T08:45:28;7.82;;;2.15;;
45208;SDS011;30951;43.994;26.260;2023-02-23T08:47:53;16.05;;;3.95;;
45208;SDS011;30951;43.994;26.260;2023-02-23T08:50:20;7.05;;;2.83;;
45208;SDS011;30951;43.994;26.260;2023-02-23T08:52:45;10.23;;;2.90;;
45208;SDS011;30951;43.994;26.260;2023-02-23T08:55:11;7.65;;;2.72;;
45208;SDS011;30951;43.994;26.260;2023-02-23T08:57:38;8.30;;;2.45;;
45208;SDS011;30951;43.994;26.260;2023-02-23T09:00:04;5.47;;;2.10;;
45208;SDS011;30951;43.994;26.260;2023-02-23T09:02:41;7.80;;;2.78;;
45208;SDS011;30951;43.994;26.260;2023-02-23T09:05:07;9.15;;;2.83;;
45208;SDS011;30951;43.994;26.260;2023-02-23T09:07:36;5.78;;;2.80;;
45208;SDS011;30951;43.994;26.260;2023-02-23T09:10:02;18.60;;;3.30;;
45208;SDS011;30951;43.994;26.260;2023-02-23T09:12:28;4.10;;;2.80;;
45208;SDS011;30951;43.994;26.260;2023-02-23T09:14:53;7.53;;;3.17;;
45208;SDS011;30951;43.994;26.260;2023-02-23T09:17:19;7.80;;;3.53;;
45208;SDS011;30951;43.994;26.260;2023-02-23T09:19:47;5.93;;;2.33;;
45208;SDS011;30951;43.994;26.260;2023-02-23T09:22:13;7.80;;;3.00;;
45208;SDS011;30951;43.994;26.260;2023-02-23T09:24:38;7.20;;;2.60;;
45208;SDS011;30951;43.994;26.260;2023-02-23T09:27:04;7.18;;;2.58;;
45208;SDS011;30951;43.994;26.260;2023-02-23T09:29:31;8.43;;;2.90;;
45208;SDS011;30951;43.994;26.260;2023-02-23T09:31:57;5.43;;;2.22;;
45208;SDS011;30951;43.994;26.260;2023-02-23T09:34:23;8.43;;;2.97;;
45208;SDS011;30951;43.994;26.260;2023-02-23T09:36:48;5.55;;;2.63;;
45208;SDS011;30951;43.994;26.260;2023-02-23T09:39:16;4.22;;;2.22;;
45208;SDS011;30951;43.994;26.260;2023-02-23T09:44:21;10.30;;;3.00;;
45208;SDS011;30951;43.994;26.260;2023-02-23T09:49:46;7.55;;;2.17;;
45208;SDS011;30951;43.994;26.260;2023-02-23T09:52:23;4.38;;;2.40;;
45208;SDS011;30951;43.994;26.260;2023-02-23T09:54:51;4.70;;;2.40;;
45208;SDS011;30951;43.994;26.260;2023-02-23T09:57:17;5.32;;;2.25;;
45208;SDS011;30951;43.994;26.260;2023-02-23T09:59:48;5.32;;;2.40;;
45208;SDS011;30951;43.994;26.260;2023-02-23T10:02:24;8.70;;;2.50;;
45208;SDS011;30951;43.994;26.260;2023-02-23T10:21:23;5.15;;;2.30;;
45208;SDS011;30951;43.994;26.260;2023-02-23T10:23:57;36.78;;;3.97;;
45208;SDS011;30951;43.994;26.260;2023-02-23T10:26:26;7.30;;;2.30;;
45208;SDS011;30951;43.994;26.260;2023-02-23T10:28:56;7.22;;;2.78;;
45208;SDS011;30951;43.994;26.260;2023-02-23T10:31:32;2.75;;;1.77;;
45208;SDS011;30951;43.994;26.260;2023-02-23T10:34:02;4.72;;;1.50;;
45208;SDS011;30951;43.994;26.260;2023-02-23T10:37:16;5.75;;;1.92;;
45208;SDS011;30951;43.994;26.260;2023-02-23T10:39:17;5.80;;;2.42;;
45208;SDS011;30951;43.994;26.260;2023-02-23T10:41:43;5.85;;;2.33;;
45208;SDS011;30951;43.994;26.260;2023-02-23T10:44:27;4.60;;;2.03;;
45208;SDS011;30951;43.994;26.260;2023-02-23T10:47:00;4.32;;;1.70;;
45208;SDS011;30951;43.994;26.260;2023-02-23T10:52:12;29.58;;;3.10;;
45208;SDS011;30951;43.994;26.260;2023-02-23T10:54:44;7.05;;;1.75;;
45208;SDS011;30951;43.994;26.260;2023-02-23T10:57:18;6.20;;;2.08;;
45208;SDS011;30951;43.994;26.260;2023-02-23T11:00:00;3.67;;;1.73;;
45208;SDS011;30951;43.994;26.260;2023-02-23T11:02:30;6.35;;;1.70;;
45208;SDS011;30951;43.994;26.260;2023-02-23T11:04:57;2.47;;;1.48;;
45208;SDS011;30951;43.994;26.260;2023-02-23T11:07:25;7.65;;;2.00;;
45208;SDS011;30951;43.994;26.260;2023-02-23T11:09:57;5.45;;;1.80;;
45208;SDS011;30951;43.994;26.260;2023-02-23T11:12:24;5.45;;;2.20;;
45208;SDS011;30951;43.994;26.260;2023-02-23T11:14:57;4.15;;;2.13;;
45208;SDS011;30951;43.994;26.260;2023-02-23T11:17:27;6.32;;;2.17;;
45208;SDS011;30951;43.994;26.260;2023-02-23T11:20:00;7.75;;;2.35;;
45208;SDS011;30951;43.994;26.260;2023-02-23T11:22:31;5.88;;;1.83;;
45208;SDS011;30951;43.994;26.260;2023-02-23T11:24:59;6.78;;;1.90;;
45208;SDS011;30951;43.994;26.260;2023-02-23T11:27:25;5.60;;;1.77;;
45208;SDS011;30951;43.994;26.260;2023-02-23T11:29:53;5.35;;;1.85;;
45208;SDS011;30951;43.994;26.260;2023-02-23T11:32:21;9.82;;;1.88;;
45208;SDS011;30951;43.994;26.260;2023-02-23T11:35:11;3.13;;;1.30;;
45208;SDS011;30951;43.994;26.260;2023-02-23T11:37:46;2.42;;;1.70;;
45208;SDS011;30951;43.994;26.260;2023-02-23T11:40:26;5.70;;;1.77;;
45208;SDS011;30951;43.994;26.260;2023-02-23T11:45:49;3.92;;;1.70;;
45208;SDS011;30951;43.994;26.260;2023-02-23T11:48:21;3.50;;;1.38;;
45208;SDS011;30951;43.994;26.260;2023-02-23T11:50:50;2.13;;;1.10;;
45208;SDS011;30951;43.994;26.260;2023-02-23T11:53:18;6.60;;;1.70;;
45208;SDS011;30951;43.994;26.260;2023-02-23T11:55:53;3.25;;;0.88;;
45208;SDS011;30951;43.994;26.260;2023-02-23T12:00:55;2.38;;;1.30;;
45208;SDS011;30951;43.994;26.260;2023-02-23T12:03:26;2.33;;;1.48;;
45208;SDS011;30951;43.994;26.260;2023-02-23T12:05:54;9.43;;;2.08;;
45208;SDS011;30951;43.994;26.260;2023-02-23T12:10:58;8.63;;;3.85;;
45208;SDS011;30951;43.994;26.260;2023-02-23T12:16:19;11.05;;;4.38;;
45208;SDS011;30951;43.994;26.260;2023-02-23T12:19:05;10.70;;;3.92;;
45208;SDS011;30951;43.994;26.260;2023-02-23T12:22:13;10.52;;;4.70;;
45208;SDS011;30951;43.994;26.260;2023-02-23T12:27:33;6.03;;;3.60;;
45208;SDS011;30951;43.994;26.260;2023-02-23T12:32:27;11.65;;;4.20;;
45208;SDS011;30951;43.994;26.260;2023-02-23T12:37:44;10.13;;;3.85;;
45208;SDS011;30951;43.994;26.260;2023-02-23T12:40:20;8.48;;;4.07;;
45208;SDS011;30951;43.994;26.260;2023-02-23T12:45:22;16.05;;;4.10;;
45208;SDS011;30951;43.994;26.260;2023-02-23T12:50:29;9.20;;;4.20;;
45208;SDS011;30951;43.994;26.260;2023-02-23T12:52:59;13.20;;;4.55;;
45208;SDS011;30951;43.994;26.260;2023-02-23T12:55:47;12.85;;;4.38;;
45208;SDS011;30951;43.994;26.260;2023-02-23T13:00:58;9.07;;;3.78;;
45208;SDS011;30951;43.994;26.260;2023-02-23T13:06:21;9.45;;;4.93;;
45208;SDS011;30951;43.994;26.260;2023-02-23T13:19:34;10.30;;;3.50;;
45208;SDS011;30951;43.994;26.260;2023-02-23T13:22:22;11.45;;;4.38;;
45208;SDS011;30951;43.994;26.260;2023-02-23T13:24:52;8.77;;;3.28;;
45208;SDS011;30951;43.994;26.260;2023-02-23T13:27:44;13.88;;;4.10;;
45208;SDS011;30951;43.994;26.260;2023-02-23T13:30:10;12.07;;;3.80;;
45208;SDS011;30951;43.994;26.260;2023-02-23T13:32:36;13.13;;;3.83;;
45208;SDS011;30951;43.994;26.260;2023-02-23T13:35:09;15.80;;;4.43;;
45208;SDS011;30951;43.994;26.260;2023-02-23T13:37:42;9.57;;;3.30;;
45208;SDS011;30951;43.994;26.260;2023-02-23T13:43:23;7.60;;;3.75;;
45208;SDS011;30951;43.994;26.260;2023-02-23T13:53:31;6.05;;;3.63;;
45208;SDS011;30951;43.994;26.260;2023-02-23T13:55:57;8.30;;;3.97;;
45208;SDS011;30951;43.994;26.260;2023-02-23T13:58:29;10.52;;;3.92;;
45208;SDS011;30951;43.994;26.260;2023-02-23T14:01:13;9.75;;;4.30;;
45208;SDS011;30951;43.994;26.260;2023-02-23T14:03:42;7.32;;;3.60;;
45208;SDS011;30951;43.994;26.260;2023-02-23T14:06:11;8.90;;;3.78;;
45208;SDS011;30951;43.994;26.260;2023-02-23T14:08:38;12.18;;;4.38;;
45208;SDS011;30951;43.994;26.260;2023-02-23T14:11:06;8.55;;;3.58;;
45208;SDS011;30951;43.994;26.260;2023-02-23T14:13:33;8.45;;;3.63;;
45208;SDS011;30951;43.994;26.260;2023-02-23T14:29:38;10.57;;;3.38;;
45208;SDS011;30951;43.994;26.260;2023-02-23T14:34:43;12.05;;;4.18;;
45208;SDS011;30951;43.994;26.260;2023-02-23T14:39:42;13.45;;;4.32;;
45208;SDS011;30951;43.994;26.260;2023-02-23T14:42:07;12.05;;;3.95;;
45208;SDS011;30951;43.994;26.260;2023-02-23T14:49:27;9.73;;;4.10;;
45208;SDS011;30951;43.994;26.260;2023-02-23T14:51:56;9.20;;;5.00;;
45208;SDS011;30951;43.994;26.260;2023-02-23T14:54:30;11.90;;;6.13;;
45208;SDS011;30951;43.994;26.260;2023-02-23T14:56:57;8.60;;;4.82;;
45208;SDS011;30951;43.994;26.260;2023-02-23T14:59:26;8.80;;;3.92;;
45208;SDS011;30951;43.994;26.260;2023-02-23T15:01:54;11.23;;;4.50;;
45208;SDS011;30951;43.994;26.260;2023-02-23T15:04:24;9.73;;;4.90;;
45208;SDS011;30951;43.994;26.260;2023-02-23T15:06:56;11.32;;;4.47;;
45208;SDS011;30951;43.994;26.260;2023-02-23T15:09:33;8.25;;;4.28;;
45208;SDS011;30951;43.994;26.260;2023-02-23T15:12:11;7.90;;;4.85;;
45208;SDS011;30951;43.994;26.260;2023-02-23T15:14:38;9.95;;;3.83;;
45208;SDS011;30951;43.994;26.260;2023-02-23T15:17:04;10.73;;;4.97;;
45208;SDS011;30951;43.994;26.260;2023-02-23T15:19:33;11.25;;;4.65;;
45208;SDS011;30951;43.994;26.260;2023-02-23T15:22:00;11.52;;;5.80;;
45208;SDS011;30951;43.994;26.260;2023-02-23T15:24:30;10.30;;;4.88;;
45208;SDS011;30951;43.994;26.260;2023-02-23T15:27:13;15.65;;;5.40;;
45208;SDS011;30951;43.994;26.260;2023-02-23T15:29:41;10.77;;;4.15;;
45208;SDS011;30951;43.994;26.260;2023-02-23T15:32:16;17.08;;;4.88;;
45208;SDS011;30951;43.994;26.260;2023-02-23T15:34:44;11.05;;;4.45;;
45208;SDS011;30951;43.994;26.260;2023-02-23T15:37:11;14.77;;;7.47;;
45208;SDS011;30951;43.994;26.260;2023-02-23T15:40:01;11.98;;;6.07;;
45208;SDS011;30951;43.994;26.260;2023-02-23T15:42:37;11.65;;;5.22;;
45208;SDS011;30951;43.994;26.260;2023-02-23T15:45:12;18.70;;;6.03;;
45208;SDS011;30951;43.994;26.260;2023-02-23T15:47:40;12.40;;;5.93;;
45208;SDS011;30951;43.994;26.260;2023-02-23T15:50:17;9.38;;;5.03;;
45208;SDS011;30951;43.994;26.260;2023-02-23T15:52:47;10.63;;;6.13;;
45208;SDS011;30951;43.994;26.260;2023-02-23T15:55:17;16.58;;;5.30;;
45208;SDS011;30951;43.994;26.260;2023-02-23T15:57:52;11.82;;;5.72;;
45208;SDS011;30951;43.994;26.260;2023-02-23T16:00:27;11.93;;;5.72;;
45208;SDS011;30951;43.994;26.260;2023-02-23T16:03:01;13.80;;;5.78;;
45208;SDS011;30951;43.994;26.260;2023-02-23T16:05:29;9.32;;;5.13;;
45208;SDS011;30951;43.994;26.260;2023-02-23T16:08:23;12.02;;;5.43;;
45208;SDS011;30951;43.994;26.260;2023-02-23T16:10:49;13.23;;;6.07;;
45208;SDS011;30951;43.994;26.260;2023-02-23T16:13:19;20.73;;;6.93;;
45208;SDS011;30951;43.994;26.260;2023-02-23T16:15:46;10.98;;;5.25;;
45208;SDS011;30951;43.994;26.260;2023-02-23T16:18:14;9.38;;;4.20;;
45208;SDS011;30951;43.994;26.260;2023-02-23T16:20:42;16.33;;;6.60;;
45208;SDS011;30951;43.994;26.260;2023-02-23T16:23:33;13.85;;;5.18;;
45208;SDS011;30951;43.994;26.260;2023-02-23T16:26:01;10.45;;;5.78;;
45208;SDS011;30951;43.994;26.260;2023-02-23T16:28:33;11.07;;;5.60;;
45208;SDS011;30951;43.994;26.260;2023-02-23T16:33:30;12.98;;;6.07;;
45208;SDS011;30951;43.994;26.260;2023-02-23T16:38:35;15.13;;;5.72;;
45208;SDS011;30951;43.994;26.260;2023-02-23T16:41:03;17.17;;;5.53;;
45208;SDS011;30951;43.994;26.260;2023-02-23T16:43:29;7.45;;;3.72;;
45208;SDS011;30951;43.994;26.260;2023-02-23T16:45:55;10.00;;;5.45;;
45208;SDS011;30951;43.994;26.260;2023-02-23T16:48:21;13.90;;;5.20;;
45208;SDS011;30951;43.994;26.260;2023-02-23T16:50:48;10.77;;;5.10;;
45208;SDS011;30951;43.994;26.260;2023-02-23T16:53:15;15.45;;;5.35;;
45208;SDS011;30951;43.994;26.260;2023-02-23T16:55:51;12.63;;;5.68;;
45208;SDS011;30951;43.994;26.260;2023-02-23T16:58:18;11.98;;;5.03;;
45208;SDS011;30951;43.994;26.260;2023-02-23T17:00:45;13.90;;;5.22;;
45208;SDS011;30951;43.994;26.260;2023-02-23T17:03:16;13.07;;;5.25;;
45208;SDS011;30951;43.994;26.260;2023-02-23T17:05:44;9.90;;;4.47;;
45208;SDS011;30951;43.994;26.260;2023-02-23T17:08:10;17.27;;;5.57;;
45208;SDS011;30951;43.994;26.260;2023-02-23T17:10:35;7.68;;;4.55;;
45208;SDS011;30951;43.994;26.260;2023-02-23T17:13:03;11.80;;;4.97;;
45208;SDS011;30951;43.994;26.260;2023-02-23T17:15:31;23.35;;;6.47;;
45208;SDS011;30951;43.994;26.260;2023-02-23T17:17:58;21.55;;;6.30;;
45208;SDS011;30951;43.994;26.260;2023-02-23T17:20:24;16.50;;;5.70;;